createdAt,value
2019-02-08T00:01:30.445Z,16.90
2019-02-08T00:04:18.578Z,16.10
2019-02-08T00:07:07.807Z,15.87
2019-02-08T00:09:56.667Z,15.93
2019-02-08T00:12:49.219Z,15.90
2019-02-08T00:15:37.816Z,16.10
2019-02-08T00:18:26.018Z,16.87
2019-02-08T00:21:14.867Z,17.03
2019-02-08T00:24:03.008Z,15.90
2019-02-08T00:26:51.143Z,16.20
2019-02-08T00:29:39.105Z,17.17
2019-02-08T00:32:26.779Z,15.97
2019-02-08T00:38:03.396Z,16.23
2019-02-08T00:40:51.526Z,14.60
2019-02-08T00:43:39.638Z,13.43
2019-02-08T00:46:28.310Z,14.97
2019-02-08T00:49:16.832Z,16.13
2019-02-08T00:52:05.117Z,16.07
2019-02-08T00:54:54.078Z,15.27
2019-02-08T00:57:42.555Z,16.67
2019-02-08T01:03:25.533Z,16.27
2019-02-08T01:06:14.015Z,16.97
2019-02-08T01:09:11.066Z,16.17
2019-02-08T01:11:59.722Z,14.70
2019-02-08T01:14:48.116Z,14.60
2019-02-08T01:17:36.427Z,14.20
2019-02-08T01:20:24.875Z,14.43
2019-02-08T01:23:13.081Z,15.90
2019-02-08T01:26:01.874Z,15.50
2019-02-08T01:28:50.570Z,15.70
2019-02-08T01:31:38.784Z,14.93
2019-02-08T01:34:26.927Z,14.27
2019-02-08T01:37:15.553Z,14.27
2019-02-08T01:40:04.847Z,15.47
2019-02-08T01:42:53.411Z,15.03
2019-02-08T01:45:42.183Z,14.03
2019-02-08T01:48:30.479Z,13.63
2019-02-08T01:51:19.517Z,15.83
2019-02-08T01:54:07.348Z,14.27
2019-02-08T01:56:55.895Z,13.90
2019-02-08T01:59:43.847Z,13.63
2019-02-08T02:02:32.541Z,12.53
2019-02-08T02:05:21.575Z,13.50
2019-02-08T02:08:09.764Z,12.57
2019-02-08T02:10:58.516Z,13.83
2019-02-08T02:13:46.927Z,12.37
2019-02-08T02:16:35.197Z,12.30
2019-02-08T02:19:22.738Z,13.43
2019-02-08T02:22:10.966Z,12.10
2019-02-08T02:24:59.095Z,12.17
2019-02-08T02:27:46.915Z,12.97
2019-02-08T02:30:35.540Z,9.77
2019-02-08T02:33:24.119Z,11.00
2019-02-08T02:36:12.862Z,10.50
2019-02-08T02:39:01.454Z,9.63
2019-02-08T02:41:50.495Z,10.60
2019-02-08T02:44:38.583Z,9.90
2019-02-08T02:47:27.814Z,9.77
2019-02-08T02:50:16.051Z,9.93
2019-02-08T02:53:04.666Z,9.47
2019-02-08T02:55:53.433Z,8.33
2019-02-08T02:58:41.174Z,9.60
2019-02-08T03:01:29.471Z,9.70
2019-02-08T03:04:18.023Z,8.13
2019-02-08T03:07:06.257Z,8.97
2019-02-08T03:09:54.120Z,9.87
2019-02-08T03:12:48.110Z,8.70
2019-02-08T03:15:36.456Z,7.60
2019-02-08T03:18:24.845Z,10.40
2019-02-08T03:21:13.543Z,8.70
2019-02-08T03:24:02.312Z,10.07
2019-02-08T03:26:50.490Z,8.60
2019-02-08T03:29:38.860Z,8.00
2019-02-08T03:32:26.868Z,8.10
2019-02-08T03:35:20.478Z,7.63
2019-02-08T03:38:09.480Z,9.00
2019-02-08T03:40:57.552Z,9.37
2019-02-08T03:43:45.970Z,8.37
2019-02-08T03:46:35.243Z,7.90
2019-02-08T03:49:23.585Z,8.13
2019-02-08T03:52:11.881Z,8.70
2019-02-08T03:54:59.879Z,8.50
2019-02-08T03:57:48.651Z,8.43
2019-02-08T04:00:45.803Z,8.07
2019-02-08T04:03:34.463Z,8.10
2019-02-08T04:06:22.634Z,8.50
2019-02-08T04:09:11.278Z,8.57
2019-02-08T04:11:59.608Z,10.17
2019-02-08T04:14:47.730Z,8.83
2019-02-08T04:17:36.060Z,7.80
2019-02-08T04:20:25.581Z,9.37
2019-02-08T04:23:13.867Z,9.73
2019-02-08T04:26:01.651Z,9.87
2019-02-08T04:28:50.935Z,10.80
2019-02-08T04:31:39.093Z,10.40
2019-02-08T04:34:27.210Z,9.77
2019-02-08T04:37:15.282Z,10.53
2019-02-08T04:40:03.953Z,9.30
2019-02-08T04:42:52.475Z,12.23
2019-02-08T04:45:40.529Z,11.17
2019-02-08T04:48:29.169Z,11.60
2019-02-08T04:51:17.472Z,12.17
2019-02-08T04:54:06.175Z,13.27
2019-02-08T04:56:54.263Z,14.33
2019-02-08T04:59:42.322Z,12.90
2019-02-08T05:02:36.360Z,11.83
2019-02-08T05:05:25.251Z,15.77
2019-02-08T05:08:13.801Z,12.90
2019-02-08T05:11:02.248Z,14.10
2019-02-08T05:13:50.503Z,13.60
2019-02-08T05:16:39.339Z,14.90
2019-02-08T05:19:27.390Z,15.10
2019-02-08T05:22:15.892Z,12.30
2019-02-08T05:25:04.730Z,14.83
2019-02-08T05:27:53.330Z,12.57
2019-02-08T05:30:41.314Z,15.30
2019-02-08T05:33:30.237Z,15.37
2019-02-08T05:36:18.332Z,13.40
2019-02-08T05:39:10.470Z,15.40
2019-02-08T05:41:59.030Z,13.50
2019-02-08T05:44:47.916Z,13.90
2019-02-08T05:47:36.344Z,14.00
2019-02-08T05:50:25.614Z,15.13
2019-02-08T05:53:14.486Z,14.90
2019-02-08T05:56:03.278Z,14.33
2019-02-08T05:58:51.673Z,13.67
2019-02-08T06:01:39.550Z,14.33
2019-02-08T06:04:27.581Z,13.20
2019-02-08T06:07:15.731Z,15.20
2019-02-08T06:10:06.282Z,16.23
2019-02-08T06:12:55.329Z,14.30
2019-02-08T06:15:43.657Z,15.00
2019-02-08T06:18:31.731Z,15.07
2019-02-08T06:21:19.770Z,16.07
2019-02-08T06:24:07.911Z,12.97
2019-02-08T06:26:55.735Z,13.30
2019-02-08T06:29:44.178Z,12.53
2019-02-08T06:32:32.095Z,13.50
2019-02-08T06:35:22.134Z,14.00
2019-02-08T06:38:10.301Z,13.10
2019-02-08T06:40:58.601Z,13.20
2019-02-08T06:43:47.378Z,14.40
2019-02-08T06:46:36.310Z,12.27
2019-02-08T06:49:24.463Z,14.30
2019-02-08T06:52:13.329Z,12.40
2019-02-08T06:55:01.467Z,14.23
2019-02-08T06:58:07.162Z,15.13
2019-02-08T07:01:14.618Z,14.50
2019-02-08T07:04:17.829Z,12.63
2019-02-08T07:07:25.522Z,12.30
2019-02-08T07:10:32.518Z,13.73
2019-02-08T07:13:40.215Z,13.47
2019-02-08T07:16:45.943Z,13.27
2019-02-08T07:20:05.093Z,14.20
2019-02-08T07:23:15.178Z,13.10
2019-02-08T07:26:28.610Z,12.23
2019-02-08T07:29:38.386Z,12.20
2019-02-08T07:32:35.358Z,12.90
2019-02-08T07:35:41.281Z,13.67
2019-02-08T07:38:38.624Z,11.57
2019-02-08T07:41:57.090Z,13.27
2019-02-08T07:45:13.308Z,13.70
2019-02-08T07:48:14.724Z,12.93
2019-02-08T07:51:18.147Z,12.30
2019-02-08T07:54:32.826Z,12.40
2019-02-08T07:57:46.595Z,12.83
2019-02-08T08:00:54.556Z,12.70
2019-02-08T08:04:01.664Z,12.60
2019-02-08T08:07:16.375Z,13.47
2019-02-08T08:10:44.309Z,13.63
2019-02-08T08:13:58.065Z,11.87
2019-02-08T08:17:11.839Z,12.90
2019-02-08T08:20:07.325Z,13.40
2019-02-08T08:22:54.902Z,13.43
2019-02-08T08:26:04.742Z,13.77
2019-02-08T08:29:18.019Z,11.57
2019-02-08T08:32:17.977Z,14.07
2019-02-08T08:35:29.643Z,11.97
2019-02-08T08:39:07.842Z,11.90
2019-02-08T08:42:30.337Z,11.50
2019-02-08T08:45:54.803Z,11.10
2019-02-08T08:49:19.231Z,10.97
2019-02-08T08:52:29.293Z,11.23
2019-02-08T08:55:59.074Z,12.93
2019-02-08T08:59:18.821Z,9.57
2019-02-08T09:02:34.855Z,12.00
2019-02-08T09:06:08.427Z,11.30
2019-02-08T09:09:07.531Z,10.90
2019-02-08T09:12:11.280Z,11.70
2019-02-08T09:15:20.678Z,11.00
2019-02-08T09:18:24.980Z,9.70
2019-02-08T09:21:41.327Z,10.40
2019-02-08T09:24:50.446Z,12.07
2019-02-08T09:28:15.609Z,10.50
2019-02-08T09:31:32.789Z,11.27
2019-02-08T09:38:23.944Z,10.90
2019-02-08T09:41:44.386Z,12.50
2019-02-08T09:45:14.726Z,10.90
2019-02-08T09:48:35.734Z,10.40
2019-02-08T09:52:06.480Z,9.90
2019-02-08T09:55:42.255Z,9.23
2019-02-08T09:59:08.771Z,10.53
2019-02-08T10:02:35.547Z,8.67
2019-02-08T10:05:59.793Z,9.97
2019-02-08T10:09:36.290Z,9.10
2019-02-08T10:13:07.477Z,10.20
2019-02-08T10:16:44.148Z,9.70
2019-02-08T10:20:01.222Z,10.10
2019-02-08T10:23:29.210Z,8.80
2019-02-08T10:27:01.518Z,8.50
2019-02-08T10:30:29.462Z,8.80
2019-02-08T10:33:53.886Z,8.80
2019-02-08T10:37:29.030Z,9.57
2019-02-08T10:44:46.970Z,8.80
2019-02-08T10:48:11.890Z,8.30
2019-02-08T10:51:42.363Z,7.80
2019-02-08T10:55:04.058Z,8.13
2019-02-08T11:02:04.365Z,7.17
2019-02-08T11:05:29.718Z,7.27
2019-02-08T11:08:52.672Z,6.47
2019-02-08T11:12:24.310Z,6.40
2019-02-08T11:15:47.726Z,6.23
2019-02-08T11:19:11.376Z,6.00
2019-02-08T11:21:59.987Z,5.80
2019-02-08T11:24:48.383Z,6.90
2019-02-08T11:27:36.561Z,6.70
2019-02-08T11:30:24.571Z,5.00
2019-02-08T11:33:13.108Z,5.03
2019-02-08T11:36:02.546Z,4.87
2019-02-08T11:38:50.921Z,5.73
2019-02-08T11:41:39.590Z,5.17
2019-02-08T11:44:27.891Z,5.40
2019-02-08T11:47:16.594Z,4.83
2019-02-08T11:50:07.168Z,5.30
2019-02-08T11:52:55.313Z,4.53
2019-02-08T11:55:48.189Z,4.93
2019-02-08T11:58:36.446Z,4.37
2019-02-08T12:01:25.284Z,5.50
2019-02-08T12:04:15.153Z,4.73
2019-02-08T12:07:02.714Z,4.73
2019-02-08T12:09:50.930Z,4.33
2019-02-08T12:12:39.198Z,3.93
2019-02-08T12:15:27.551Z,4.40
2019-02-08T12:18:15.516Z,4.03
2019-02-08T12:21:03.339Z,6.33
2019-02-08T12:23:51.957Z,4.10
2019-02-08T12:26:40.298Z,4.30
2019-02-08T12:29:29.664Z,4.50
2019-02-08T12:32:18.449Z,4.60
2019-02-08T12:35:07.362Z,4.03
2019-02-08T12:37:55.508Z,4.30
2019-02-08T12:40:44.773Z,4.03
2019-02-08T12:43:33.845Z,4.20
2019-02-08T12:46:23.641Z,4.33
2019-02-08T12:49:12.019Z,3.50
2019-02-08T12:52:05.023Z,3.90
2019-02-08T12:54:53.575Z,3.67
2019-02-08T12:57:42.035Z,3.93
2019-02-08T13:00:42.110Z,3.90
2019-02-08T13:03:30.382Z,2.90
2019-02-08T13:06:19.986Z,2.83
2019-02-08T13:09:10.982Z,3.13
2019-02-08T13:11:59.773Z,3.20
2019-02-08T13:14:47.962Z,3.10
2019-02-08T13:17:35.644Z,3.23
2019-02-08T13:20:23.316Z,3.17
2019-02-08T13:23:11.947Z,3.63
2019-02-08T13:25:59.914Z,4.00
2019-02-08T13:28:48.584Z,3.63
2019-02-08T13:31:37.808Z,3.10
2019-02-08T13:34:27.140Z,3.20
2019-02-08T13:37:15.599Z,3.63
2019-02-08T13:40:05.784Z,3.60
2019-02-08T13:42:59.441Z,4.13
2019-02-08T13:45:48.549Z,2.60
2019-02-08T13:48:37.136Z,3.63
2019-02-08T13:51:26.831Z,4.30
2019-02-08T13:54:15.571Z,4.17
2019-02-08T13:57:04.567Z,3.20
2019-02-08T13:59:55.282Z,2.90
2019-02-08T14:02:44.532Z,3.67
2019-02-08T14:05:34.297Z,3.60
2019-02-08T14:08:23.120Z,3.80
2019-02-08T14:11:10.981Z,3.93
2019-02-08T14:13:59.012Z,4.00
2019-02-08T14:16:48.583Z,4.10
2019-02-08T14:19:37.648Z,3.50
2019-02-08T14:22:25.722Z,4.63
2019-02-08T14:25:14.215Z,3.60
2019-02-08T14:28:02.498Z,4.60
2019-02-08T14:30:50.853Z,3.17
2019-02-08T14:33:40.150Z,3.50
2019-02-08T14:36:28.351Z,3.67
2019-02-08T14:39:18.014Z,3.00
2019-02-08T14:42:07.047Z,3.70
2019-02-08T14:44:56.620Z,3.30
2019-02-08T14:47:49.126Z,3.60
2019-02-08T14:50:43.514Z,3.50
2019-02-08T14:53:32.732Z,3.70
2019-02-08T14:56:21.704Z,3.47
2019-02-08T14:59:10.232Z,3.30
2019-02-08T15:01:58.474Z,3.67
2019-02-08T15:04:47.946Z,2.87
2019-02-08T15:07:36.379Z,3.10
2019-02-08T15:10:30.448Z,2.60
2019-02-08T15:13:18.405Z,2.83
2019-02-08T15:16:06.958Z,3.17
2019-02-08T15:18:55.368Z,3.53
2019-02-08T15:21:43.511Z,2.80
2019-02-08T15:24:31.704Z,3.40
2019-02-08T15:27:24.272Z,2.60
2019-02-08T15:30:12.031Z,2.43
2019-02-08T15:33:01.502Z,2.80
2019-02-08T15:35:50.216Z,2.37
2019-02-08T15:38:39.911Z,3.10
2019-02-08T15:41:28.874Z,2.63
2019-02-08T15:44:26.879Z,1.93
2019-02-08T15:47:16.287Z,2.47
2019-02-08T15:50:06.075Z,2.03
2019-02-08T15:52:54.605Z,2.30
2019-02-08T15:55:46.353Z,2.40
2019-02-08T15:58:34.893Z,2.20
2019-02-08T16:01:27.332Z,2.70
2019-02-08T16:04:17.354Z,2.27
2019-02-08T16:07:06.231Z,2.93
2019-02-08T16:09:56.290Z,2.97
2019-02-08T16:12:44.814Z,3.10
2019-02-08T16:15:33.208Z,2.60
2019-02-08T16:18:21.511Z,3.30
2019-02-08T16:21:10.385Z,2.60
2019-02-08T16:23:59.000Z,2.97
2019-02-08T16:26:48.958Z,3.10
2019-02-08T16:29:37.639Z,3.00
2019-02-08T16:32:26.226Z,2.70
2019-02-08T16:35:16.574Z,2.60
2019-02-08T16:38:05.614Z,3.20
2019-02-08T16:40:54.555Z,2.80
2019-02-08T16:43:43.679Z,2.00
2019-02-08T16:46:33.623Z,2.90
2019-02-08T16:49:23.200Z,2.80
2019-02-08T16:52:12.674Z,2.30
2019-02-08T16:55:02.525Z,1.53
2019-02-08T16:57:51.854Z,2.10
2019-02-08T17:00:46.706Z,2.60
2019-02-08T17:03:35.994Z,1.70
2019-02-08T17:06:24.480Z,2.17
2019-02-08T17:09:14.315Z,2.17
2019-02-08T17:12:03.142Z,2.13
2019-02-08T17:14:52.302Z,2.67
2019-02-08T17:17:41.128Z,2.80
2019-02-08T17:20:40.606Z,2.10
2019-02-08T17:23:28.874Z,1.70
2019-02-08T17:26:18.117Z,2.40
2019-02-08T17:29:07.603Z,1.83
2019-02-08T17:31:56.294Z,2.50
2019-02-08T17:34:46.141Z,2.23
2019-02-08T17:37:35.639Z,2.10
2019-02-08T17:40:26.897Z,2.30
2019-02-08T17:43:15.606Z,2.03
2019-02-08T17:46:10.965Z,1.93
2019-02-08T17:49:00.691Z,1.83
2019-02-08T17:51:50.152Z,2.00
2019-02-08T17:54:41.588Z,2.20
2019-02-08T17:57:29.979Z,2.77
2019-02-08T18:03:36.987Z,2.90
2019-02-08T18:06:26.894Z,3.20
2019-02-08T18:09:17.431Z,3.10
2019-02-08T18:12:07.707Z,2.83
2019-02-08T18:14:55.964Z,4.50
2019-02-08T18:17:44.664Z,9.00
2019-02-08T18:20:35.631Z,3.63
2019-02-08T18:23:24.084Z,2.90
2019-02-08T18:26:12.880Z,2.90
2019-02-08T18:29:01.044Z,3.70
2019-02-08T18:31:50.205Z,3.40
2019-02-08T18:34:39.278Z,3.53
2019-02-08T18:37:28.942Z,2.77
2019-02-08T18:40:19.158Z,3.27
2019-02-08T18:43:07.508Z,3.43
2019-02-08T18:45:57.714Z,3.37
2019-02-08T18:48:47.229Z,2.07
2019-02-08T18:51:38.232Z,2.40
2019-02-08T18:54:27.246Z,3.10
2019-02-08T18:57:17.560Z,2.30
2019-02-08T19:00:11.183Z,3.00
2019-02-08T19:03:01.745Z,3.63
2019-02-08T19:05:52.120Z,2.83
2019-02-08T19:08:41.598Z,3.77
2019-02-08T19:11:29.701Z,4.20
2019-02-08T19:14:17.768Z,3.00
2019-02-08T19:17:13.391Z,4.37
2019-02-08T19:20:02.866Z,4.03
2019-02-08T19:22:51.638Z,3.53
2019-02-08T19:25:41.163Z,2.93
2019-02-08T19:28:29.128Z,3.20
2019-02-08T19:31:19.495Z,3.00
2019-02-08T19:34:09.909Z,3.20
2019-02-08T19:36:58.672Z,2.70
2019-02-08T19:39:47.397Z,2.63
2019-02-08T19:42:35.410Z,3.00
2019-02-08T19:45:24.102Z,3.10
2019-02-08T19:48:14.908Z,2.70
2019-02-08T19:51:03.519Z,2.93
2019-02-08T19:53:51.847Z,3.63
2019-02-08T19:56:40.661Z,3.63
2019-02-08T19:59:29.438Z,2.80
2019-02-08T20:02:18.580Z,2.73
2019-02-08T20:05:11.666Z,2.40
2019-02-08T20:08:02.440Z,2.37
2019-02-08T20:10:50.786Z,3.17
2019-02-08T20:13:39.502Z,2.10
2019-02-08T20:16:27.693Z,3.47
2019-02-08T20:19:15.448Z,3.50
2019-02-08T20:22:04.415Z,2.40
2019-02-08T20:24:53.498Z,2.40
2019-02-08T20:27:42.890Z,2.20
2019-02-08T20:30:32.328Z,2.40
2019-02-08T20:33:22.136Z,3.07
2019-02-08T20:36:11.307Z,4.00
2019-02-08T20:39:01.306Z,2.77
2019-02-08T20:41:49.747Z,2.57
2019-02-08T20:44:38.013Z,2.70
2019-02-08T20:50:27.586Z,2.00
2019-02-08T20:53:17.028Z,2.43
2019-02-08T20:56:05.318Z,2.77
2019-02-08T20:58:53.350Z,2.47
2019-02-08T21:01:41.223Z,2.90
2019-02-08T21:04:30.458Z,2.33
2019-02-08T21:07:20.014Z,2.53
2019-02-08T21:10:08.438Z,1.90
2019-02-08T21:12:56.666Z,1.97
2019-02-08T21:15:45.166Z,2.00
2019-02-08T21:18:35.420Z,2.80
2019-02-08T21:21:24.346Z,2.23
2019-02-08T21:24:13.714Z,1.73
2019-02-08T21:27:02.766Z,1.70
2019-02-08T21:29:52.215Z,2.13
2019-02-08T21:35:30.047Z,2.03
2019-02-08T21:38:18.863Z,1.73
2019-02-08T21:41:07.450Z,2.20
2019-02-08T21:43:55.882Z,2.00
2019-02-08T21:46:45.105Z,2.20
2019-02-08T21:49:34.638Z,2.10
2019-02-08T21:52:23.622Z,2.10
2019-02-08T21:55:14.403Z,1.90
2019-02-08T21:58:02.941Z,2.40
2019-02-08T22:00:53.293Z,1.60
2019-02-08T22:03:41.810Z,2.33
2019-02-08T22:06:30.902Z,2.17
2019-02-08T22:09:19.609Z,2.07
2019-02-08T22:12:07.782Z,2.50
2019-02-08T22:14:56.415Z,1.90
2019-02-08T22:17:45.164Z,4.20
2019-02-08T22:20:33.080Z,2.23
2019-02-08T22:23:21.814Z,2.47
2019-02-08T22:26:10.658Z,2.27
2019-02-08T22:29:01.028Z,2.37
2019-02-08T22:31:49.959Z,2.13
2019-02-08T22:34:39.581Z,2.33
2019-02-08T22:37:28.796Z,2.30
2019-02-08T22:40:18.197Z,2.33
2019-02-08T22:43:06.649Z,2.20
2019-02-08T22:45:55.494Z,2.10
2019-02-08T22:48:50.549Z,2.33
2019-02-08T22:51:39.559Z,3.10
2019-02-08T22:54:28.247Z,2.03
2019-02-08T22:57:17.160Z,1.60
2019-02-08T23:00:15.821Z,2.20
2019-02-08T23:03:04.871Z,2.20
2019-02-08T23:05:53.607Z,2.50
2019-02-08T23:08:41.321Z,2.07
2019-02-08T23:11:29.612Z,2.00
2019-02-08T23:14:17.807Z,2.37
2019-02-08T23:17:06.032Z,2.03
2019-02-08T23:19:54.092Z,1.90
2019-02-08T23:22:42.126Z,2.07
2019-02-08T23:25:30.413Z,2.40
2019-02-08T23:28:18.526Z,2.67
2019-02-08T23:31:07.300Z,2.07
2019-02-08T23:33:55.781Z,2.43
2019-02-08T23:36:44.588Z,1.83
2019-02-08T23:39:33.419Z,2.17
2019-02-08T23:42:22.353Z,2.43
2019-02-08T23:45:15.002Z,2.47
2019-02-08T23:48:06.091Z,2.67
2019-02-08T23:50:54.210Z,2.10
2019-02-08T23:53:42.450Z,2.10
2019-02-08T23:56:30.270Z,2.60
2019-02-08T23:59:19.034Z,2.07
